sensor_id;sensor_type;location;lat;lon;timestamp;pressure;altitude;pressure_sealevel;temperature;humidity
50356;BME280;36264;51.296;-0.602;2023-03-17T00:00:05;100063.72;;;22.99;50.58
50356;BME280;36264;51.296;-0.602;2023-03-17T00:02:31;100059.00;;;22.93;50.92
50356;BME280;36264;51.296;-0.602;2023-03-17T00:04:56;100061.53;;;22.85;50.84
50356;BME280;36264;51.296;-0.602;2023-03-17T00:07:22;100068.38;;;22.87;50.96
50356;BME280;36264;51.296;-0.602;2023-03-17T00:09:47;100066.69;;;22.86;51.15
50356;BME280;36264;51.296;-0.602;2023-03-17T00:12:13;100073.78;;;22.95;50.88
50356;BME280;36264;51.296;-0.602;2023-03-17T00:14:39;100071.56;;;22.91;51.08
50356;BME280;36264;51.296;-0.602;2023-03-17T00:17:07;100075.00;;;23.01;50.97
50356;BME280;36264;51.296;-0.602;2023-03-17T00:19:34;100072.66;;;22.88;51.88
50356;BME280;36264;51.296;-0.602;2023-03-17T00:22:01;100066.06;;;23.02;50.90
50356;BME280;36264;51.296;-0.602;2023-03-17T00:24:28;100058.56;;;22.97;51.19
50356;BME280;36264;51.296;-0.602;2023-03-17T00:26:53;100062.63;;;22.92;51.23
50356;BME280;36264;51.296;-0.602;2023-03-17T00:29:19;100071.69;;;22.89;51.42
50356;BME280;36264;51.296;-0.602;2023-03-17T00:31:44;100074.31;;;22.99;51.18
50356;BME280;36264;51.296;-0.602;2023-03-17T00:34:14;100070.69;;;23.10;51.05
50356;BME280;36264;51.296;-0.602;2023-03-17T00:36:41;100075.97;;;23.00;52.27
50356;BME280;36264;51.296;-0.602;2023-03-17T00:39:12;100075.03;;;22.91;52.23
50356;BME280;36264;51.296;-0.602;2023-03-17T00:41:38;100078.81;;;22.89;51.59
50356;BME280;36264;51.296;-0.602;2023-03-17T00:44:04;100080.88;;;22.85;51.87
50356;BME280;36264;51.296;-0.602;2023-03-17T00:46:31;100083.94;;;23.00;51.45
50356;BME280;36264;51.296;-0.602;2023-03-17T00:49:19;100077.94;;;23.08;51.75
50356;BME280;36264;51.296;-0.602;2023-03-17T00:51:46;100092.72;;;22.91;51.94
50356;BME280;36264;51.296;-0.602;2023-03-17T00:54:12;100098.69;;;23.03;51.47
50356;BME280;36264;51.296;-0.602;2023-03-17T00:56:39;100090.03;;;23.10;50.80
50356;BME280;36264;51.296;-0.602;2023-03-17T00:59:27;100081.81;;;23.04;51.22
50356;BME280;36264;51.296;-0.602;2023-03-17T01:01:54;100090.72;;;23.03;50.86
50356;BME280;36264;51.296;-0.602;2023-03-17T01:06:47;100091.88;;;23.10;50.59
50356;BME280;36264;51.296;-0.602;2023-03-17T01:09:15;100097.31;;;23.08;50.82
50356;BME280;36264;51.296;-0.602;2023-03-17T01:11:43;100090.47;;;22.96;50.37
50356;BME280;36264;51.296;-0.602;2023-03-17T01:14:10;100092.56;;;23.02;50.20
50356;BME280;36264;51.296;-0.602;2023-03-17T01:16:36;100086.19;;;22.85;49.82
50356;BME280;36264;51.296;-0.602;2023-03-17T01:19:01;100086.63;;;22.80;49.97
50356;BME280;36264;51.296;-0.602;2023-03-17T01:21:27;100086.81;;;22.59;50.22
50356;BME280;36264;51.296;-0.602;2023-03-17T01:23:52;100080.50;;;22.80;49.53
50356;BME280;36264;51.296;-0.602;2023-03-17T01:26:17;100100.13;;;22.77;48.97
50356;BME280;36264;51.296;-0.602;2023-03-17T01:28:43;100084.97;;;22.60;49.48
50356;BME280;36264;51.296;-0.602;2023-03-17T01:31:09;100089.72;;;22.56;49.12
50356;BME280;36264;51.296;-0.602;2023-03-17T01:33:34;100096.56;;;22.49;49.36
50356;BME280;36264;51.296;-0.602;2023-03-17T01:36:00;100085.72;;;22.52;49.11
50356;BME280;36264;51.296;-0.602;2023-03-17T01:38:26;100079.03;;;22.48;49.50
50356;BME280;36264;51.296;-0.602;2023-03-17T01:40:51;100084.72;;;22.53;49.08
50356;BME280;36264;51.296;-0.602;2023-03-17T01:43:26;100089.16;;;22.63;48.87
50356;BME280;36264;51.296;-0.602;2023-03-17T01:46:30;100092.78;;;22.61;49.33
50356;BME280;36264;51.296;-0.602;2023-03-17T01:49:02;100092.78;;;22.61;49.07
50356;BME280;36264;51.296;-0.602;2023-03-17T01:51:35;100094.75;;;22.50;49.38
50356;BME280;36264;51.296;-0.602;2023-03-17T01:54:07;100091.94;;;22.71;49.21
50356;BME280;36264;51.296;-0.602;2023-03-17T01:56:34;100094.56;;;22.71;49.45
50356;BME280;36264;51.296;-0.602;2023-03-17T01:59:02;100087.88;;;22.86;49.55
50356;BME280;36264;51.296;-0.602;2023-03-17T02:01:33;100082.97;;;22.91;49.20
50356;BME280;36264;51.296;-0.602;2023-03-17T02:04:02;100074.03;;;23.02;49.07
50356;BME280;36264;51.296;-0.602;2023-03-17T02:06:29;100075.41;;;23.16;48.54
50356;BME280;36264;51.296;-0.602;2023-03-17T02:08:56;100072.03;;;23.14;48.86
50356;BME280;36264;51.296;-0.602;2023-03-17T02:11:21;100073.59;;;23.07;48.70
50356;BME280;36264;51.296;-0.602;2023-03-17T02:13:48;100071.06;;;23.15;48.59
50356;BME280;36264;51.296;-0.602;2023-03-17T02:16:15;100072.16;;;23.22;48.71
50356;BME280;36264;51.296;-0.602;2023-03-17T02:21:39;100070.63;;;23.20;49.11
50356;BME280;36264;51.296;-0.602;2023-03-17T02:24:15;100060.75;;;23.12;49.17
50356;BME280;36264;51.296;-0.602;2023-03-17T02:26:43;100060.63;;;23.04;49.19
50356;BME280;36264;51.296;-0.602;2023-03-17T02:29:11;100052.53;;;23.15;49.01
50356;BME280;36264;51.296;-0.602;2023-03-17T02:31:37;100058.53;;;23.07;49.07
50356;BME280;36264;51.296;-0.602;2023-03-17T02:34:02;100054.22;;;23.06;48.97
50356;BME280;36264;51.296;-0.602;2023-03-17T02:36:28;100055.88;;;23.07;48.92
50356;BME280;36264;51.296;-0.602;2023-03-17T02:38:53;100048.94;;;22.96;49.32
50356;BME280;36264;51.296;-0.602;2023-03-17T02:41:19;100047.53;;;23.02;49.22
50356;BME280;36264;51.296;-0.602;2023-03-17T02:43:44;100052.16;;;23.00;48.93
50356;BME280;36264;51.296;-0.602;2023-03-17T02:46:10;100050.88;;;23.04;49.19
50356;BME280;36264;51.296;-0.602;2023-03-17T02:48:36;100054.50;;;23.13;49.10
50356;BME280;36264;51.296;-0.602;2023-03-17T02:51:03;100054.50;;;23.13;49.19
50356;BME280;36264;51.296;-0.602;2023-03-17T02:53:29;100057.16;;;23.13;48.83
50356;BME280;36264;51.296;-0.602;2023-03-17T02:55:55;100051.72;;;23.14;48.72
50356;BME280;36264;51.296;-0.602;2023-03-17T02:58:21;100043.63;;;23.06;49.09
50356;BME280;36264;51.296;-0.602;2023-03-17T03:00:47;100042.50;;;23.09;49.16
50356;BME280;36264;51.296;-0.602;2023-03-17T03:03:14;100036.50;;;23.07;49.26
50356;BME280;36264;51.296;-0.602;2023-03-17T03:05:39;100039.88;;;23.09;49.30
50356;BME280;36264;51.296;-0.602;2023-03-17T03:08:05;100042.38;;;23.10;49.26
50356;BME280;36264;51.296;-0.602;2023-03-17T03:10:31;100035.81;;;23.05;49.79
50356;BME280;36264;51.296;-0.602;2023-03-17T03:12:56;100037.09;;;23.01;49.65
50356;BME280;36264;51.296;-0.602;2023-03-17T03:15:22;100022.31;;;22.98;49.42
50356;BME280;36264;51.296;-0.602;2023-03-17T03:17:47;100018.69;;;22.99;50.03
50356;BME280;36264;51.296;-0.602;2023-03-17T03:20:13;100018.41;;;23.02;49.66
50356;BME280;36264;51.296;-0.602;2023-03-17T03:22:38;100022.72;;;23.03;49.33
50356;BME280;36264;51.296;-0.602;2023-03-17T03:25:05;100017.13;;;23.16;49.26
50356;BME280;36264;51.296;-0.602;2023-03-17T03:27:31;100027.03;;;23.04;49.25
50356;BME280;36264;51.296;-0.602;2023-03-17T03:29:57;100029.53;;;23.06;49.24
50356;BME280;36264;51.296;-0.602;2023-03-17T03:32:22;100027.72;;;23.16;49.00
50356;BME280;36264;51.296;-0.602;2023-03-17T03:34:48;100024.53;;;23.03;49.22
50356;BME280;36264;51.296;-0.602;2023-03-17T03:37:13;100032.47;;;23.03;49.08
50356;BME280;36264;51.296;-0.602;2023-03-17T03:39:39;100032.47;;;23.03;49.14
50356;BME280;36264;51.296;-0.602;2023-03-17T03:42:04;100033.06;;;22.96;49.53
50356;BME280;36264;51.296;-0.602;2023-03-17T03:44:31;100032.78;;;23.09;49.27
50356;BME280;36264;51.296;-0.602;2023-03-17T03:46:56;100032.91;;;23.08;49.29
50356;BME280;36264;51.296;-0.602;2023-03-17T03:49:21;100028.00;;;23.13;49.34
50356;BME280;36264;51.296;-0.602;2023-03-17T03:51:49;100022.97;;;23.20;49.00
50356;BME280;36264;51.296;-0.602;2023-03-17T03:54:15;100020.97;;;23.22;49.18
50356;BME280;36264;51.296;-0.602;2023-03-17T03:56:40;100021.13;;;23.20;49.03
50356;BME280;36264;51.296;-0.602;2023-03-17T03:59:05;100024.78;;;23.19;49.10
50356;BME280;36264;51.296;-0.602;2023-03-17T04:01:31;100021.72;;;23.14;49.14
50356;BME280;36264;51.296;-0.602;2023-03-17T04:03:56;100016.59;;;23.03;50.74
50356;BME280;36264;51.296;-0.602;2023-03-17T04:06:22;100022.03;;;23.11;49.79
50356;BME280;36264;51.296;-0.602;2023-03-17T04:08:47;100017.44;;;23.03;50.43
50356;BME280;36264;51.296;-0.602;2023-03-17T04:11:13;100016.75;;;23.11;49.52
50356;BME280;36264;51.296;-0.602;2023-03-17T04:13:38;100011.97;;;23.14;49.36
50356;BME280;36264;51.296;-0.602;2023-03-17T04:16:03;100014.34;;;23.18;49.26
50356;BME280;36264;51.296;-0.602;2023-03-17T04:18:29;100023.41;;;23.15;49.65
50356;BME280;36264;51.296;-0.602;2023-03-17T04:20:55;100020.59;;;23.17;49.26
50356;BME280;36264;51.296;-0.602;2023-03-17T04:23:21;100026.88;;;23.15;49.41
50356;BME280;36264;51.296;-0.602;2023-03-17T04:25:49;100023.31;;;22.97;50.17
50356;BME280;36264;51.296;-0.602;2023-03-17T04:28:16;100030.00;;;22.91;50.40
50356;BME280;36264;51.296;-0.602;2023-03-17T04:30:41;100028.31;;;23.10;49.82
50356;BME280;36264;51.296;-0.602;2023-03-17T04:33:07;100025.84;;;22.89;50.07
50356;BME280;36264;51.296;-0.602;2023-03-17T04:35:32;100019.47;;;22.82;50.24
50356;BME280;36264;51.296;-0.602;2023-03-17T04:37:57;100028.13;;;22.74;50.78
50356;BME280;36264;51.296;-0.602;2023-03-17T04:40:23;100027.88;;;22.67;50.47
50356;BME280;36264;51.296;-0.602;2023-03-17T04:42:48;100023.28;;;22.59;50.62
50356;BME280;36264;51.296;-0.602;2023-03-17T04:45:14;100034.00;;;22.58;50.65
50356;BME280;36264;51.296;-0.602;2023-03-17T04:47:40;100031.50;;;22.56;50.94
50356;BME280;36264;51.296;-0.602;2023-03-17T04:50:07;100032.91;;;22.60;50.70
50356;BME280;36264;51.296;-0.602;2023-03-17T04:52:34;100045.28;;;22.70;50.85
50356;BME280;36264;51.296;-0.602;2023-03-17T04:54:59;100041.28;;;22.56;51.05
50356;BME280;36264;51.296;-0.602;2023-03-17T04:57:25;100040.84;;;22.60;50.81
50356;BME280;36264;51.296;-0.602;2023-03-17T04:59:50;100038.75;;;22.54;51.03
50356;BME280;36264;51.296;-0.602;2023-03-17T05:02:16;100043.66;;;22.49;50.86
50356;BME280;36264;51.296;-0.602;2023-03-17T05:04:43;100046.16;;;22.51;51.05
50356;BME280;36264;51.296;-0.602;2023-03-17T05:07:10;100056.31;;;22.55;51.08
50356;BME280;36264;51.296;-0.602;2023-03-17T05:09:35;100055.47;;;22.45;50.92
50356;BME280;36264;51.296;-0.602;2023-03-17T05:12:01;100055.47;;;22.45;51.13
50356;BME280;36264;51.296;-0.602;2023-03-17T05:14:26;100058.13;;;22.45;52.90
50356;BME280;36264;51.296;-0.602;2023-03-17T05:16:51;100049.09;;;22.48;51.93
50356;BME280;36264;51.296;-0.602;2023-03-17T05:19:17;100053.97;;;22.52;51.30
50356;BME280;36264;51.296;-0.602;2023-03-17T05:21:43;100041.41;;;22.54;51.26
50356;BME280;36264;51.296;-0.602;2023-03-17T05:24:08;100050.44;;;22.61;51.14
50356;BME280;36264;51.296;-0.602;2023-03-17T05:26:34;100047.94;;;22.70;51.11
50356;BME280;36264;51.296;-0.602;2023-03-17T05:29:00;100050.44;;;22.61;51.25
50356;BME280;36264;51.296;-0.602;2023-03-17T05:31:25;100043.22;;;22.64;51.29
50356;BME280;36264;51.296;-0.602;2023-03-17T05:33:51;100052.41;;;22.59;51.45
50356;BME280;36264;51.296;-0.602;2023-03-17T05:36:17;100044.16;;;22.72;51.20
50356;BME280;36264;51.296;-0.602;2023-03-17T05:38:43;100053.34;;;22.78;51.06
50356;BME280;36264;51.296;-0.602;2023-03-17T05:41:09;100055.59;;;22.73;51.42
50356;BME280;36264;51.296;-0.602;2023-03-17T05:43:35;100047.19;;;22.77;51.16
50356;BME280;36264;51.296;-0.602;2023-03-17T05:46:01;100047.63;;;22.83;51.05
50356;BME280;36264;51.296;-0.602;2023-03-17T05:48:26;100047.19;;;22.77;50.90
50356;BME280;36264;51.296;-0.602;2023-03-17T05:50:51;100064.88;;;22.77;51.11
50356;BME280;36264;51.296;-0.602;2023-03-17T05:53:17;100053.34;;;22.78;50.83
50356;BME280;36264;51.296;-0.602;2023-03-17T05:55:42;100049.00;;;22.77;51.08
50356;BME280;36264;51.296;-0.602;2023-03-17T05:58:08;100052.09;;;22.72;50.85
50356;BME280;36264;51.296;-0.602;2023-03-17T06:00:34;100051.22;;;22.82;50.98
50356;BME280;36264;51.296;-0.602;2023-03-17T06:03:00;100051.25;;;22.72;51.33
50356;BME280;36264;51.296;-0.602;2023-03-17T06:05:26;100044.53;;;22.77;51.08
50356;BME280;36264;51.296;-0.602;2023-03-17T06:07:52;100032.44;;;22.75;51.19
50356;BME280;36264;51.296;-0.602;2023-03-17T06:10:17;100042.63;;;22.70;50.80
50356;BME280;36264;51.296;-0.602;2023-03-17T06:12:42;100047.94;;;22.70;50.68
50356;BME280;36264;51.296;-0.602;2023-03-17T06:15:08;100054.34;;;22.67;50.92
50356;BME280;36264;51.296;-0.602;2023-03-17T06:17:36;100050.75;;;22.39;51.36
50356;BME280;36264;51.296;-0.602;2023-03-17T06:20:03;100043.50;;;22.41;51.25
50356;BME280;36264;51.296;-0.602;2023-03-17T06:22:28;100044.91;;;22.25;51.61
50356;BME280;36264;51.296;-0.602;2023-03-17T06:24:54;100040.44;;;22.16;51.55
50356;BME280;36264;51.296;-0.602;2023-03-17T06:27:19;100042.97;;;22.18;51.51
50356;BME280;36264;51.296;-0.602;2023-03-17T06:29:45;100039.03;;;22.12;51.48
50356;BME280;36264;51.296;-0.602;2023-03-17T06:32:10;100053.13;;;22.13;51.38
50356;BME280;36264;51.296;-0.602;2023-03-17T06:34:36;100051.59;;;22.10;51.66
50356;BME280;36264;51.296;-0.602;2023-03-17T06:37:02;100050.63;;;22.11;51.66
50356;BME280;36264;51.296;-0.602;2023-03-17T06:39:27;100046.00;;;22.13;51.42
50356;BME280;36264;51.296;-0.602;2023-03-17T06:41:53;100043.09;;;22.16;51.33
50356;BME280;36264;51.296;-0.602;2023-03-17T06:44:18;100040.31;;;22.18;51.24
50356;BME280;36264;51.296;-0.602;2023-03-17T06:46:44;100040.44;;;22.16;51.12
50356;BME280;36264;51.296;-0.602;2023-03-17T06:49:09;100038.22;;;22.12;51.17
50356;BME280;36264;51.296;-0.602;2023-03-17T06:51:38;100040.16;;;22.19;51.43
50356;BME280;36264;51.296;-0.602;2023-03-17T06:54:04;100037.38;;;22.21;51.75
50356;BME280;36264;51.296;-0.602;2023-03-17T06:56:31;100039.19;;;22.20;51.68
50356;BME280;36264;51.296;-0.602;2023-03-17T06:58:57;100028.31;;;22.23;51.48
50356;BME280;36264;51.296;-0.602;2023-03-17T07:01:22;100043.63;;;22.20;51.39
50356;BME280;36264;51.296;-0.602;2023-03-17T07:03:48;100038.34;;;22.20;51.82
50356;BME280;36264;51.296;-0.602;2023-03-17T07:06:13;100025.81;;;22.22;51.37
50356;BME280;36264;51.296;-0.602;2023-03-17T07:08:39;100029.03;;;22.25;51.53
50356;BME280;36264;51.296;-0.602;2023-03-17T07:11:06;100037.81;;;22.36;51.69
50356;BME280;36264;51.296;-0.602;2023-03-17T07:13:31;100049.53;;;22.33;51.95
50356;BME280;36264;51.296;-0.602;2023-03-17T07:16:00;100058.13;;;22.45;51.82
50356;BME280;36264;51.296;-0.602;2023-03-17T07:18:27;100054.53;;;22.46;52.17
50356;BME280;36264;51.296;-0.602;2023-03-17T07:20:56;100054.94;;;22.51;51.51
50356;BME280;36264;51.296;-0.602;2023-03-17T07:23:21;100064.53;;;22.52;51.51
50356;BME280;36264;51.296;-0.602;2023-03-17T07:25:47;100057.97;;;22.56;52.01
50356;BME280;36264;51.296;-0.602;2023-03-17T07:28:13;100061.59;;;22.46;51.97
50356;BME280;36264;51.296;-0.602;2023-03-17T07:30:40;100066.34;;;22.52;52.12
50356;BME280;36264;51.296;-0.602;2023-03-17T07:33:10;100061.31;;;22.49;52.00
50356;BME280;36264;51.296;-0.602;2023-03-17T07:35:36;100056.75;;;22.51;52.22
50356;BME280;36264;51.296;-0.602;2023-03-17T07:38:01;100049.78;;;22.50;52.23
50356;BME280;36264;51.296;-0.602;2023-03-17T07:40:27;100050.44;;;22.52;52.46
50356;BME280;36264;51.296;-0.602;2023-03-17T07:42:53;100025.25;;;22.57;52.36
50356;BME280;36264;51.296;-0.602;2023-03-17T07:45:19;100043.50;;;22.60;52.39
50356;BME280;36264;51.296;-0.602;2023-03-17T07:47:45;100069.53;;;22.65;52.32
50356;BME280;36264;51.296;-0.602;2023-03-17T07:50:10;100077.59;;;22.73;52.52
50356;BME280;36264;51.296;-0.602;2023-03-17T07:52:36;100085.97;;;22.69;52.47
50356;BME280;36264;51.296;-0.602;2023-03-17T07:55:02;100085.66;;;22.72;52.33
50356;BME280;36264;51.296;-0.602;2023-03-17T07:57:28;100094.03;;;22.67;52.54
50356;BME280;36264;51.296;-0.602;2023-03-17T07:59:53;100092.50;;;22.65;52.38
50356;BME280;36264;51.296;-0.602;2023-03-17T08:02:20;100101.28;;;22.65;52.38
50356;BME280;36264;51.296;-0.602;2023-03-17T08:04:46;100096.03;;;22.55;52.58
50356;BME280;36264;51.296;-0.602;2023-03-17T08:07:12;100098.94;;;22.52;53.09
50356;BME280;36264;51.296;-0.602;2023-03-17T08:09:38;100104.22;;;22.52;52.69
50356;BME280;36264;51.296;-0.602;2023-03-17T08:12:05;100098.94;;;22.62;52.68
50356;BME280;36264;51.296;-0.602;2023-03-17T08:14:30;100101.28;;;22.46;53.27
50356;BME280;36264;51.296;-0.602;2023-03-17T08:16:56;100091.56;;;22.56;52.77
50356;BME280;36264;51.296;-0.602;2023-03-17T08:19:22;100081.78;;;22.56;53.43
50356;BME280;36264;51.296;-0.602;2023-03-17T08:21:48;100078.03;;;22.59;53.05
50356;BME280;36264;51.296;-0.602;2023-03-17T08:24:13;100095.56;;;22.60;53.06
50356;BME280;36264;51.296;-0.602;2023-03-17T08:26:39;100101.00;;;22.68;53.12
50356;BME280;36264;51.296;-0.602;2023-03-17T08:29:05;100096.69;;;22.67;53.25
50356;BME280;36264;51.296;-0.602;2023-03-17T08:31:32;100102.25;;;22.74;53.05
50356;BME280;36264;51.296;-0.602;2023-03-17T08:33:58;100114.63;;;22.83;53.06
50356;BME280;36264;51.296;-0.602;2023-03-17T08:36:24;100105.56;;;22.86;53.01
50356;BME280;36264;51.296;-0.602;2023-03-17T08:38:50;100116.00;;;22.97;53.15
50356;BME280;36264;51.296;-0.602;2023-03-17T08:41:19;100114.44;;;23.04;53.29
50356;BME280;36264;51.296;-0.602;2023-03-17T08:43:46;100111.13;;;22.92;53.05
50356;BME280;36264;51.296;-0.602;2023-03-17T08:46:15;100110.72;;;22.87;53.22
50356;BME280;36264;51.296;-0.602;2023-03-17T08:48:42;100119.78;;;22.85;53.47
50356;BME280;36264;51.296;-0.602;2023-03-17T08:51:08;100117.56;;;22.80;53.08
50356;BME280;36264;51.296;-0.602;2023-03-17T08:53:34;100109.03;;;22.86;53.33
50356;BME280;36264;51.296;-0.602;2023-03-17T08:56:00;100111.56;;;22.88;53.02
50356;BME280;36264;51.296;-0.602;2023-03-17T08:58:26;100109.88;;;22.87;53.13
50356;BME280;36264;51.296;-0.602;2023-03-17T09:00:51;100110.16;;;22.84;52.85
50356;BME280;36264;51.296;-0.602;2023-03-17T09:03:18;100100.53;;;22.92;53.01
50356;BME280;36264;51.296;-0.602;2023-03-17T09:05:45;100101.66;;;22.90;52.90
50356;BME280;36264;51.296;-0.602;2023-03-17T09:08:11;100104.44;;;22.88;53.01
50356;BME280;36264;51.296;-0.602;2023-03-17T09:10:37;100096.38;;;22.80;53.33
50356;BME280;36264;51.296;-0.602;2023-03-17T09:13:02;100098.59;;;22.85;52.97
50356;BME280;36264;51.296;-0.602;2023-03-17T09:15:30;100107.19;;;22.96;52.83
50356;BME280;36264;51.296;-0.602;2023-03-17T09:17:56;100104.16;;;22.91;53.26
50356;BME280;36264;51.296;-0.602;2023-03-17T09:20:22;100110.88;;;22.86;54.08
50356;BME280;36264;51.296;-0.602;2023-03-17T09:22:47;100111.84;;;22.85;53.32
50356;BME280;36264;51.296;-0.602;2023-03-17T09:25:14;100111.41;;;22.89;53.06
50356;BME280;36264;51.296;-0.602;2023-03-17T09:27:40;100101.94;;;22.87;53.49
50356;BME280;36264;51.296;-0.602;2023-03-17T09:30:06;100094.09;;;22.95;53.14
50356;BME280;36264;51.296;-0.602;2023-03-17T09:32:31;100100.41;;;22.84;53.34
50356;BME280;36264;51.296;-0.602;2023-03-17T09:34:57;100099.81;;;23.00;53.17
50356;BME280;36264;51.296;-0.602;2023-03-17T09:37:22;100090.47;;;22.96;53.04
50356;BME280;36264;51.296;-0.602;2023-03-17T09:39:48;100096.31;;;23.00;53.30
50356;BME280;36264;51.296;-0.602;2023-03-17T09:45:29;100101.59;;;23.19;54.10
50356;BME280;36264;51.296;-0.602;2023-03-17T09:51:01;100096.16;;;23.21;54.44
50356;BME280;36264;51.296;-0.602;2023-03-17T09:53:34;100093.16;;;23.33;53.75
50356;BME280;36264;51.296;-0.602;2023-03-17T09:56:11;100096.22;;;23.39;53.79
50356;BME280;36264;51.296;-0.602;2023-03-17T09:58:38;100086.28;;;23.41;54.09
50356;BME280;36264;51.296;-0.602;2023-03-17T10:01:07;100087.97;;;23.42;53.81
50356;BME280;36264;51.296;-0.602;2023-03-17T10:03:34;100089.22;;;23.38;53.91
50356;BME280;36264;51.296;-0.602;2023-03-17T10:06:23;100102.03;;;23.42;54.01
50356;BME280;36264;51.296;-0.602;2023-03-17T10:09:13;100103.44;;;23.46;54.32
50356;BME280;36264;51.296;-0.602;2023-03-17T10:16:57;100094.03;;;23.52;53.97
50356;BME280;36264;51.296;-0.602;2023-03-17T10:19:41;100099.03;;;23.55;53.77
50356;BME280;36264;51.296;-0.602;2023-03-17T10:22:27;100094.59;;;23.56;53.81
50356;BME280;36264;51.296;-0.602;2023-03-17T10:25:01;100099.91;;;23.56;54.10
50356;BME280;36264;51.296;-0.602;2023-03-17T10:27:30;100101.41;;;23.58;54.13
50356;BME280;36264;51.296;-0.602;2023-03-17T10:29:58;100103.72;;;23.43;54.13
50356;BME280;36264;51.296;-0.602;2023-03-17T10:32:25;100098.38;;;23.53;54.08
50356;BME280;36264;51.296;-0.602;2023-03-17T10:34:51;100097.47;;;23.34;54.35
50356;BME280;36264;51.296;-0.602;2023-03-17T10:37:19;100112.91;;;23.49;54.16
50356;BME280;36264;51.296;-0.602;2023-03-17T10:39:53;100122.03;;;23.37;54.92
50356;BME280;36264;51.296;-0.602;2023-03-17T10:42:25;100116.28;;;23.41;55.14
50356;BME280;36264;51.296;-0.602;2023-03-17T10:47:31;100118.66;;;23.44;55.61
50356;BME280;36264;51.296;-0.602;2023-03-17T10:50:17;100113.66;;;23.41;55.77
50356;BME280;36264;51.296;-0.602;2023-03-17T10:52:46;100115.78;;;23.28;55.32
50356;BME280;36264;51.296;-0.602;2023-03-17T10:55:18;100114.38;;;23.33;55.70
50356;BME280;36264;51.296;-0.602;2023-03-17T11:00:52;100115.16;;;23.44;58.37
50356;BME280;36264;51.296;-0.602;2023-03-17T11:03:26;100105.41;;;23.44;56.35
50356;BME280;36264;51.296;-0.602;2023-03-17T11:06:06;100100.94;;;23.45;56.11
50356;BME280;36264;51.296;-0.602;2023-03-17T11:08:38;100112.59;;;23.52;55.84
50356;BME280;36264;51.296;-0.602;2023-03-17T11:11:09;100105.66;;;23.51;55.72
50356;BME280;36264;51.296;-0.602;2023-03-17T11:13:44;100100.94;;;23.45;55.90
50356;BME280;36264;51.296;-0.602;2023-03-17T11:16:21;100110.88;;;23.61;55.56
50356;BME280;36264;51.296;-0.602;2023-03-17T11:18:50;100107.72;;;23.57;55.69
50356;BME280;36264;51.296;-0.602;2023-03-17T11:21:31;100092.34;;;23.61;56.04
50356;BME280;36264;51.296;-0.602;2023-03-17T11:29:08;100108.47;;;23.67;55.70
50356;BME280;36264;51.296;-0.602;2023-03-17T11:32:14;100115.59;;;23.67;55.68
50356;BME280;36264;51.296;-0.602;2023-03-17T11:40:34;100117.38;;;23.48;55.40
50356;BME280;36264;51.296;-0.602;2023-03-17T11:51:35;100118.59;;;23.54;56.06
50356;BME280;36264;51.296;-0.602;2023-03-17T11:54:18;100131.16;;;23.52;55.63
50356;BME280;36264;51.296;-0.602;2023-03-17T11:56:53;100124.19;;;23.51;55.98
50356;BME280;36264;51.296;-0.602;2023-03-17T12:02:05;100124.28;;;23.59;55.72
50356;BME280;36264;51.296;-0.602;2023-03-17T12:04:37;100123.59;;;23.57;55.95
50356;BME280;36264;51.296;-0.602;2023-03-17T12:07:18;100127.38;;;23.55;56.43
50356;BME280;36264;51.296;-0.602;2023-03-17T12:09:53;100108.53;;;23.58;56.34
50356;BME280;36264;51.296;-0.602;2023-03-17T12:12:28;100112.31;;;23.55;57.31
50356;BME280;36264;51.296;-0.602;2023-03-17T12:14:57;100109.50;;;23.57;57.23
50356;BME280;36264;51.296;-0.602;2023-03-17T12:22:39;100112.78;;;23.50;58.04
50356;BME280;36264;51.296;-0.602;2023-03-17T12:25:23;100115.09;;;23.54;58.52
50356;BME280;36264;51.296;-0.602;2023-03-17T12:28:22;100115.06;;;23.63;58.05
50356;BME280;36264;51.296;-0.602;2023-03-17T12:30:54;100110.59;;;23.64;57.02
50356;BME280;36264;51.296;-0.602;2023-03-17T12:33:32;100109.50;;;23.57;58.08
50356;BME280;36264;51.296;-0.602;2023-03-17T12:36:02;100120.38;;;23.63;57.13
50356;BME280;36264;51.296;-0.602;2023-03-17T12:38:39;100116.56;;;23.66;57.20
50356;BME280;36264;51.296;-0.602;2023-03-17T12:41:26;100114.16;;;23.73;57.02
50356;BME280;36264;51.296;-0.602;2023-03-17T12:46:59;100090.28;;;24.00;58.20
50356;BME280;36264;51.296;-0.602;2023-03-17T12:55:30;100098.03;;;24.48;58.51
50356;BME280;36264;51.296;-0.602;2023-03-17T13:04:04;100096.72;;;24.96;57.48
50356;BME280;36264;51.296;-0.602;2023-03-17T13:06:38;100089.22;;;24.91;56.10
50356;BME280;36264;51.296;-0.602;2023-03-17T13:09:41;100096.91;;;25.03;56.75
50356;BME280;36264;51.296;-0.602;2023-03-17T13:14:58;100087.31;;;24.84;58.36
50356;BME280;36264;51.296;-0.602;2023-03-17T13:43:44;100067.94;;;25.18;56.99
50356;BME280;36264;51.296;-0.602;2023-03-17T13:56:58;100052.63;;;25.46;55.97
50356;BME280;36264;51.296;-0.602;2023-03-17T13:59:59;100053.94;;;25.42;54.99
50356;BME280;36264;51.296;-0.602;2023-03-17T14:02:29;100056.84;;;25.73;55.18
50356;BME280;36264;51.296;-0.602;2023-03-17T14:05:06;100056.53;;;25.76;52.61
50356;BME280;36264;51.296;-0.602;2023-03-17T14:07:45;100047.44;;;26.03;51.92
50356;BME280;36264;51.296;-0.602;2023-03-17T14:10:19;100052.94;;;26.27;54.45
50356;BME280;36264;51.296;-0.602;2023-03-17T14:15:33;100056.25;;;26.45;53.50
50356;BME280;36264;51.296;-0.602;2023-03-17T14:18:07;100051.06;;;26.52;53.40
50356;BME280;36264;51.296;-0.602;2023-03-17T14:20:35;100050.75;;;26.47;53.79
50356;BME280;36264;51.296;-0.602;2023-03-17T14:23:02;100050.91;;;26.62;53.98
50356;BME280;36264;51.296;-0.602;2023-03-17T14:25:36;100043.22;;;26.83;53.00
50356;BME280;36264;51.296;-0.602;2023-03-17T14:28:07;100045.84;;;26.91;52.42
50356;BME280;36264;51.296;-0.602;2023-03-17T14:30:36;100046.56;;;26.85;53.27
50356;BME280;36264;51.296;-0.602;2023-03-17T14:35:38;100051.56;;;26.88;53.58